Stations météo

réclame
Mon MeteoGroup
Fylingdales, Grande-Bretagne (3281): Température de l'air & dewpoint: 10.07.2019 15:00:00 - 16.07.2019 15:00:00 (BST)Fylingdales, Grande-Bretagne (3281): Vitesse du vent & gusts: 10.07.2019 15:00:00 - 16.07.2019 15:00:00 (BST)Fylingdales, Grande-Bretagne (3281): Direction du vent: 10.07.2019 15:00:00 - 16.07.2019 15:00:00 (BST)Fylingdales, Grande-Bretagne (3281): Quantités de précipitations: 10.07.2019 15:00:00 - 16.07.2019 15:00:00 (BST)
Date & Time tt [°C] td [°C] ff [km/h] ff [knt] fx [km/h] fx [knt] dd rr [mm]
16.07.2019 15:00:00 21,3 10,1 18 10 - - W -
16.07.2019 14:00:00 21,4 11,1 15 8 - - SW -
16.07.2019 13:00:00 21,9 10,1 16 9 - - W -
16.07.2019 12:00:00 19,7 13,5 18 10 - - SSW -
16.07.2019 11:00:00 18,6 13,9 13 7 - - SW -
16.07.2019 10:00:00 17,6 13,0 9 5 - - SW -
16.07.2019 09:00:00 17,1 13,0 8 4 - - WSW 0,0
16.07.2019 08:00:00 15,6 12,6 11 6 - - SW 0,0
16.07.2019 07:00:00 13,9 11,9 8 4 - - SW 0,0
16.07.2019 06:00:00 13,1 11,2 2 1 - - WSW 0,0
16.07.2019 05:00:00 12,4 10,7 5 3 - - WSW 0,0
16.07.2019 04:00:00 12,4 10,4 13 7 - - SW 0,0
16.07.2019 03:00:00 11,6 10,6 11 6 - - WSW 0,0
16.07.2019 02:00:00 11,5 10,4 9 5 - - SW 0,0
16.07.2019 01:00:00 11,7 10,8 11 6 - - SSW 0,0
16.07.2019 00:00:00 10,9 10,2 13 7 - - SW 0,0
15.07.2019 23:00:00 10,7 9,3 9 5 - - S 0,0
15.07.2019 22:00:00 11,9 10,8 8 4 - - ESE 0,0
15.07.2019 21:00:00 13,7 11,4 9 5 - - SE 0,0
15.07.2019 20:00:00 16,4 11,9 9 5 - - E 0,0
15.07.2019 19:00:00 17,4 11,6 9 5 - - ENE 0,0
15.07.2019 18:00:00 18,5 11,6 11 6 - - E 0,0
15.07.2019 17:00:00 18,6 11,6 8 4 - - ENE 0,0
15.07.2019 16:00:00 18,6 12,0 11 6 - - ENE 0,0
15.07.2019 15:00:00 18,7 12,5 13 7 - - NNE 0,0
15.07.2019 14:00:00 19,2 13,3 9 5 - - ENE 0,0
15.07.2019 13:00:00 17,2 12,9 11 6 - - E 0,0
15.07.2019 12:00:00 17,4 12,0 8 4 - - SW 0,0
15.07.2019 11:00:00 15,4 11,5 8 4 - - SW 0,0
15.07.2019 10:00:00 15,6 11,6 2 1 - - SSE 0,0
15.07.2019 09:00:00 13,3 10,4 4 2 - - SW 0,0
15.07.2019 08:00:00 12,8 10,8 4 2 - - NE 0,0
15.07.2019 07:00:00 11,3 10,7 4 2 - - ENE 0,0
15.07.2019 06:00:00 9,3 9,1 0 0 - - N 0,0
15.07.2019 05:00:00 9,3 9,1 9 5 - - WSW 0,0
15.07.2019 04:00:00 9,5 9,2 8 4 - - W 0,0
15.07.2019 03:00:00 9,9 9,5 4 2 - - NNW 0,0
15.07.2019 02:00:00 11,1 10,0 8 4 - - N 0,0
15.07.2019 01:00:00 11,2 10,3 8 4 - - N 0,0
15.07.2019 00:00:00 11,1 10,4 8 4 - - N 0,0
14.07.2019 23:00:00 10,7 10,0 9 5 - - N 0,0
14.07.2019 22:00:00 11,0 10,1 13 7 - - N 0,0
14.07.2019 21:00:00 11,9 10,1 8 4 - - NNW 0,0
14.07.2019 20:00:00 12,8 10,0 15 8 - - NNE 0,0
14.07.2019 19:00:00 13,9 9,7 21 11 - - N 0,0
14.07.2019 18:00:00 13,9 9,4 24 13 - - N 0,0
14.07.2019 17:00:00 13,4 9,9 18 10 - - N 0,0
14.07.2019 16:00:00 13,9 10,7 21 11 - - N 0,0
14.07.2019 15:00:00 13,4 10,4 22 12 - - N 0,0
14.07.2019 14:00:00 13,5 10,5 24 13 - - N 0,2
14.07.2019 13:00:00 14,5 10,4 22 12 - - N 0,0
14.07.2019 12:00:00 13,8 10,4 24 13 - - N 0,0
14.07.2019 11:00:00 13,3 10,8 22 12 - - N 0,0
14.07.2019 10:00:00 12,9 10,2 22 12 - - N 0,0
14.07.2019 09:00:00 13,0 12,1 21 11 - - N 0,0
14.07.2019 08:00:00 12,6 12,5 15 8 - - NNW 0,0
14.07.2019 07:00:00 12,0 12,0 11 6 - - NNW 0,0
14.07.2019 06:00:00 11,7 11,6 5 3 - - WNW 0,0
14.07.2019 05:00:00 11,7 11,5 8 4 - - NNW 0,0
14.07.2019 04:00:00 11,4 11,3 9 5 - - N 0,0
14.07.2019 03:00:00 12,0 11,8 5 3 - - NNW 0,0
14.07.2019 02:00:00 12,2 11,9 5 3 - - NNW 0,2
14.07.2019 01:00:00 12,4 12,2 9 5 - - NNE 0,0
14.07.2019 00:00:00 12,3 12,0 9 5 - - N 0,0
13.07.2019 23:00:00 12,2 12,1 15 8 - - NE 0,0
13.07.2019 22:00:00 12,4 12,2 9 5 - - ENE 0,0
13.07.2019 21:00:00 12,9 12,4 5 3 - - ENE 1,4
13.07.2019 20:00:00 13,2 12,3 11 6 - - NNE 0,0
13.07.2019 19:00:00 14,6 12,2 16 9 - - NNE 0,0
13.07.2019 18:00:00 15,7 12,5 13 7 - - NNE 0,0
13.07.2019 17:00:00 17,1 12,7 11 6 - - NNE 0,0
13.07.2019 16:00:00 16,6 12,6 15 8 - - N 0,0
13.07.2019 15:00:00 16,9 13,2 9 5 - - NNW 0,0
13.07.2019 14:00:00 16,1 12,1 9 5 - - NW 0,0
13.07.2019 13:00:00 14,7 12,1 16 9 - - NNW 0,0
13.07.2019 12:00:00 15,7 13,2 16 9 - - N 0,0
13.07.2019 11:00:00 13,2 13,2 16 9 - - NNW 0,0
13.07.2019 10:00:00 13,2 13,2 16 9 - - NNW 0,0
13.07.2019 09:00:00 13,3 13,2 16 9 - - NW 0,4
13.07.2019 08:00:00 12,8 12,8 11 6 - - N 0,0
13.07.2019 07:00:00 12,8 12,8 9 5 - - NNW 0,0
13.07.2019 06:00:00 12,8 12,8 16 9 - - NNW 0,4
13.07.2019 05:00:00 12,7 12,6 15 8 - - NNW 0,0
13.07.2019 04:00:00 12,4 12,4 16 9 - - NNW 0,0
13.07.2019 03:00:00 12,5 12,3 16 9 - - NNW 0,0
13.07.2019 02:00:00 12,7 12,7 15 8 - - NNW 0,0
13.07.2019 01:00:00 12,8 12,7 16 9 - - NW 0,0
13.07.2019 00:00:00 12,7 12,5 9 5 - - NNW 0,0
12.07.2019 23:00:00 13,2 12,4 13 7 - - NNW 0,0
12.07.2019 22:00:00 13,0 11,8 13 7 - - N 0,0
12.07.2019 21:00:00 13,9 12,2 11 6 - - NNW 0,0
12.07.2019 20:00:00 15,0 12,4 18 10 - - N 0,0
12.07.2019 19:00:00 15,4 12,6 18 10 - - N 0,0
12.07.2019 18:00:00 17,7 13,1 22 12 - - NNW 0,0
12.07.2019 17:00:00 17,7 12,9 26 14 - - NNW 0,0
12.07.2019 16:00:00 17,2 13,2 29 16 - - NNW 0,0
12.07.2019 15:00:00 17,1 13,4 29 16 - - NNW 0,0
12.07.2019 14:00:00 15,2 13,7 21 11 - - NNW 0,0
12.07.2019 13:00:00 14,6 13,4 28 15 - - NNW 0,0
12.07.2019 12:00:00 14,5 13,4 21 11 - - NW 0,0
12.07.2019 11:00:00 16,7 12,3 26 14 - - NNW 0,0
12.07.2019 10:00:00 16,3 12,2 24 13 - - NW 0,0
12.07.2019 09:00:00 16,0 12,3 21 11 - - NW 0,0
12.07.2019 08:00:00 15,6 12,3 22 12 - - NW 0,0
12.07.2019 07:00:00 14,1 11,9 21 11 - - WNW 0,0
12.07.2019 06:00:00 12,5 11,2 13 7 - - WNW 0,0
12.07.2019 05:00:00 11,7 10,5 13 7 - - W 0,0
12.07.2019 04:00:00 10,6 9,6 9 5 - - WNW 0,0
12.07.2019 03:00:00 11,1 9,7 11 6 - - W 0,0
12.07.2019 02:00:00 12,1 10,8 5 3 - - NW 0,0
12.07.2019 01:00:00 11,7 10,2 15 8 - - W 0,0
12.07.2019 00:00:00 12,4 10,6 16 9 - - W 0,0
11.07.2019 23:00:00 13,8 11,1 13 7 - - WSW 0,0
11.07.2019 22:00:00 15,0 12,0 13 7 - - SW 0,0
11.07.2019 21:00:00 17,3 12,4 16 9 - - WSW 0,0
11.07.2019 20:00:00 19,4 11,4 21 11 - - W 0,0
11.07.2019 19:00:00 20,4 10,5 26 14 46 25 W 0,0
11.07.2019 18:00:00 20,8 10,9 29 16 - - W 0,0
11.07.2019 17:00:00 21,4 13,4 24 13 - - W 0,0
11.07.2019 16:00:00 21,5 13,5 22 12 - - WSW 0,0
11.07.2019 15:00:00 19,9 13,5 16 9 - - SW 0,0
11.07.2019 14:00:00 19,3 14,7 13 7 - - WSW 0,2
11.07.2019 13:00:00 18,8 13,3 22 12 - - SW 0,0
11.07.2019 12:00:00 18,5 15,4 11 6 - - WSW 0,0
11.07.2019 11:00:00 16,5 14,9 15 8 - - WSW 0,0
11.07.2019 10:00:00 15,7 15,2 16 9 - - SW 0,0
11.07.2019 09:00:00 14,6 14,6 15 8 - - WSW 0,2
11.07.2019 08:00:00 14,2 14,1 16 9 - - SW 0,4
11.07.2019 07:00:00 13,8 13,8 18 10 - - SW 0,2
11.07.2019 06:00:00 13,6 13,6 18 10 - - SW 0,0
11.07.2019 05:00:00 13,1 13,0 18 10 - - SSW 0,0
11.07.2019 04:00:00 12,9 12,5 16 9 - - SSW 0,0
11.07.2019 03:00:00 12,3 11,7 16 9 - - SSW 0,0
11.07.2019 02:00:00 12,2 11,1 16 9 - - SW 0,0
11.07.2019 01:00:00 13,1 11,3 13 7 - - SW 0,0
11.07.2019 00:00:00 13,8 11,5 11 6 - - WSW 0,0
10.07.2019 23:00:00 14,3 12,3 15 8 - - WSW 0,0
10.07.2019 22:00:00 15,4 12,9 13 7 - - WSW 0,0
10.07.2019 21:00:00 16,8 13,7 11 6 - - SW 0,0
10.07.2019 20:00:00 18,1 14,1 11 6 - - WSW 0,0
10.07.2019 19:00:00 19,1 13,9 13 7 - - SW 0,0
10.07.2019 18:00:00 19,3 13,8 18 10 - - SW 0,0
10.07.2019 17:00:00 19,7 14,1 15 8 - - W 0,0
10.07.2019 16:00:00 20,3 14,3 21 11 - - W 0,0
10.07.2019 15:00:00 20,6 14,5 11 6 - - WSW 0,0

tt = Température de l'air
td = dewpoint
ff = Vitesse du vent
fx = gusts
dd = Direction du vent
rr = Quantités de précipitations

stations d'obs. à proximité